Time;durP1;ratioP1;P1;durP2;ratioP2;P2;SDS_P1;SDS_P2;PMS_P1;PMS_P2;Temp;Humidity;BMP_temperature;BMP_pressure;BME280_temperature;BME280_humidity;BME280_pressure;Samples;Min_cycle;Max_cycle;Signal;HPM_P1;HPM_P2
2021/08/24 00:01:43;;;;;;;3.20;1.48;;;;;22.00;102641.00;;;;5051560;28;20211;-77
2021/08/24 00:04:11;;;;;;;1.30;1.10;;;;;22.00;102648.00;;;;5050671;28;20207;-77
2021/08/24 00:06:38;;;;;;;1.95;1.27;;;;;22.00;102643.00;;;;5051289;28;20207;-77
2021/08/24 00:09:06;;;;;;;1.65;1.00;;;;;21.90;102641.00;;;;5050420;28;20224;-78
2021/08/24 00:11:34;;;;;;;4.70;1.17;;;;;21.90;102638.00;;;;5050863;28;20199;-77
2021/08/24 00:14:02;;;;;;;3.75;1.35;;;;;21.90;102643.00;;;;5050335;28;20208;-77
2021/08/24 00:16:31;;;;;;;1.90;1.10;;;;;21.80;102634.00;;;;5050675;28;20637;-77
2021/08/24 00:18:58;;;;;;;3.55;1.30;;;;;21.80;102646.00;;;;5049303;28;20203;-77
2021/08/24 00:21:25;;;;;;;5.32;2.25;;;;;21.80;102643.00;;;;5050321;28;20215;-77
2021/08/24 00:23:53;;;;;;;1.75;1.20;;;;;21.80;102642.00;;;;5050838;28;20203;-78
2021/08/24 00:26:20;;;;;;;3.03;1.40;;;;;21.80;102631.00;;;;5050679;28;20600;-77
2021/08/24 00:28:47;;;;;;;2.25;1.10;;;;;21.70;102634.00;;;;5050787;28;20227;-75
2021/08/24 00:31:15;;;;;;;1.55;1.10;;;;;21.70;102633.00;;;;5049938;28;20206;-76
2021/08/24 00:33:43;;;;;;;3.95;1.58;;;;;21.70;102630.00;;;;5050864;28;20203;-76
2021/08/24 00:36:13;;;;;;;1.80;1.27;;;;;21.70;102634.00;;;;5050126;28;20572;-76
2021/08/24 00:38:41;;;;;;;3.40;1.20;;;;;21.70;102629.00;;;;5050985;28;20312;-76
2021/08/24 00:41:09;;;;;;;2.35;1.10;;;;;21.60;102629.00;;;;5049680;28;20199;-77
2021/08/24 00:43:39;;;;;;;1.50;0.90;;;;;21.60;102624.00;;;;5050378;28;20210;-77
2021/08/24 00:46:15;;;;;;;2.33;1.40;;;;;21.50;102627.00;;;;5050174;28;20215;-76
2021/08/24 00:48:44;;;;;;;2.10;1.30;;;;;21.60;102632.00;;;;5050656;28;20219;-76
2021/08/24 00:51:14;;;;;;;1.77;1.40;;;;;21.50;102638.00;;;;5048896;28;20207;-76
2021/08/24 00:53:43;;;;;;;2.28;1.40;;;;;21.50;102629.00;;;;5050118;28;20210;-77
2021/08/24 00:56:11;;;;;;;2.58;1.02;;;;;21.50;102634.00;;;;5049978;28;20207;-76
2021/08/24 00:58:39;;;;;;;1.42;1.00;;;;;21.50;102643.00;;;;5050076;28;20206;-76
2021/08/24 01:01:06;;;;;;;2.90;0.98;;;;;21.50;102638.00;;;;5049470;28;20215;-77
2021/08/24 01:03:40;;;;;;;1.67;1.13;;;;;21.40;102643.00;;;;5049969;28;20199;-77
2021/08/24 01:06:19;;;;;;;1.80;1.30;;;;;21.40;102647.00;;;;5050066;28;20212;-77
2021/08/24 01:09:01;;;;;;;2.55;1.10;;;;;21.30;102638.00;;;;5056590;28;20222;-77
2021/08/24 01:11:35;;;;;;;3.83;1.50;;;;;21.30;102646.00;;;;5069937;28;20268;-77
2021/08/24 01:14:12;;;;;;;1.92;1.40;;;;;21.30;102638.00;;;;5051808;28;20210;-78
2021/08/24 01:16:43;;;;;;;2.15;1.30;;;;;21.30;102641.00;;;;5049431;28;20199;-77
2021/08/24 01:19:43;;;;;;;3.53;1.67;;;;;21.20;102639.00;;;;5049341;28;20204;-77
2021/08/24 01:22:48;;;;;;;2.00;1.45;;;;;21.20;102640.00;;;;5045503;28;20210;-77
2021/08/24 01:25:21;;;;;;;3.05;1.27;;;;;21.20;102646.00;;;;5049602;28;20207;-77
2021/08/24 01:27:56;;;;;;;3.92;1.67;;;;;21.20;102649.00;;;;5049714;28;20616;-77
2021/08/24 01:30:42;;;;;;;2.22;1.48;;;;;21.10;102645.00;;;;5049899;28;20223;-76
2021/08/24 01:33:14;;;;;;;3.53;1.70;;;;;21.10;102643.00;;;;5049100;28;20567;-76
2021/08/24 01:36:07;;;;;;;1.95;1.50;;;;;21.10;102640.00;;;;5049671;28;20218;-77
2021/08/24 01:38:42;;;;;;;1.60;1.27;;;;;21.10;102643.00;;;;5049136;28;20227;-76
2021/08/24 01:41:17;;;;;;;1.75;1.23;;;;;21.10;102644.00;;;;5049018;28;20203;-76
2021/08/24 01:43:57;;;;;;;3.15;1.17;;;;;21.00;102638.00;;;;5049128;28;20203;-77
2021/08/24 01:46:35;;;;;;;2.83;1.23;;;;;21.00;102645.00;;;;5049364;28;20653;-77
2021/08/24 01:49:06;;;;;;;2.60;1.40;;;;;21.00;102642.00;;;;5049429;28;20226;-76
2021/08/24 01:51:39;;;;;;;4.22;1.40;;;;;21.00;102644.00;;;;5049055;28;20222;-77
2021/08/24 01:54:14;;;;;;;3.08;1.30;;;;;20.90;102651.00;;;;5049106;28;20291;-77
2021/08/24 01:56:43;;;;;;;2.17;1.63;;;;;21.00;102649.00;;;;5048876;28;20199;-77
2021/08/24 01:59:16;;;;;;;2.05;1.42;;;;;20.90;102652.00;;;;5048517;28;20207;-77
2021/08/24 02:01:48;;;;;;;1.88;1.73;;;;;20.90;102654.00;;;;5049050;28;20187;-76
2021/08/24 02:04:27;;;;;;;3.38;1.23;;;;;20.90;102663.00;;;;5060080;28;20214;-77
2021/08/24 02:06:55;;;;;;;1.73;1.30;;;;;20.90;102657.00;;;;5068851;28;20203;-76
2021/08/24 02:09:30;;;;;;;3.83;1.73;;;;;20.90;102660.00;;;;5067621;28;20226;-77
2021/08/24 02:11:59;;;;;;;2.58;1.40;;;;;20.90;102661.00;;;;5068824;28;20202;-76
2021/08/24 02:14:27;;;;;;;2.83;1.38;;;;;20.90;102666.00;;;;5068806;28;20207;-76
2021/08/24 02:16:56;;;;;;;4.05;1.70;;;;;20.80;102667.00;;;;5068905;28;20198;-76
2021/08/24 02:19:27;;;;;;;2.13;1.50;;;;;20.80;102674.00;;;;5068321;28;20699;-77
2021/08/24 02:21:59;;;;;;;2.38;1.55;;;;;20.80;102669.00;;;;5052026;28;20222;-77
2021/08/24 02:24:35;;;;;;;2.63;1.65;;;;;20.70;102667.00;;;;5048580;28;20253;-77
2021/08/24 02:27:06;;;;;;;1.92;1.58;;;;;20.80;102670.00;;;;5048391;28;20605;-77
2021/08/24 02:29:34;;;;;;;4.40;1.70;;;;;20.70;102673.00;;;;5048833;28;20231;-76
2021/08/24 02:32:05;;;;;;;2.22;1.85;;;;;20.70;102674.00;;;;5048777;28;20617;-76
2021/08/24 02:34:36;;;;;;;2.05;1.77;;;;;20.70;102669.00;;;;5048578;28;20227;-77
2021/08/24 02:37:10;;;;;;;2.42;1.75;;;;;20.70;102671.00;;;;5048654;28;20227;-77
2021/08/24 02:39:45;;;;;;;4.25;2.10;;;;;20.60;102668.00;;;;5048665;28;20203;-77
2021/08/24 02:42:18;;;;;;;4.53;1.80;;;;;20.70;102676.00;;;;5049933;28;20207;-77
2021/08/24 02:44:52;;;;;;;2.20;1.77;;;;;20.60;102673.00;;;;5052783;28;20224;-77
2021/08/24 02:47:20;;;;;;;2.60;1.75;;;;;20.60;102675.00;;;;5052293;28;20204;-77
2021/08/24 02:49:48;;;;;;;4.60;1.60;;;;;20.60;102676.00;;;;5052419;28;20223;-77
2021/08/24 02:52:15;;;;;;;4.75;2.10;;;;;20.60;102671.00;;;;5052396;28;20203;-76
2021/08/24 02:54:47;;;;;;;3.03;2.17;;;;;20.60;102676.00;;;;5052920;28;20211;-78
2021/08/24 02:57:14;;;;;;;3.50;2.13;;;;;20.60;102674.00;;;;5052005;28;20200;-77
2021/08/24 02:59:42;;;;;;;3.22;2.03;;;;;20.60;102676.00;;;;5051971;28;20215;-77
2021/08/24 03:02:11;;;;;;;2.92;2.03;;;;;20.60;102675.00;;;;5052090;28;20204;-77
2021/08/24 03:04:38;;;;;;;3.55;2.50;;;;;20.60;102668.00;;;;5052571;28;20192;-77
2021/08/24 03:07:11;;;;;;;2.58;1.90;;;;;20.50;102681.00;;;;5052184;28;20654;-77
2021/08/24 03:09:39;;;;;;;3.40;2.20;;;;;20.50;102684.00;;;;5055756;28;20231;-77
2021/08/24 03:12:17;;;;;;;2.65;1.95;;;;;20.50;102674.00;;;;5059073;28;20203;-76
2021/08/24 03:14:51;;;;;;;3.30;2.35;;;;;20.50;102671.00;;;;5051932;28;20209;-77
2021/08/24 03:17:25;;;;;;;3.13;1.88;;;;;20.50;102673.00;;;;5052214;28;20230;-77
2021/08/24 03:19:54;;;;;;;4.10;1.90;;;;;20.50;102669.00;;;;5051891;28;20199;-77
2021/08/24 03:22:22;;;;;;;3.22;2.20;;;;;20.50;102670.00;;;;5051720;28;20204;-77
2021/08/24 03:24:51;;;;;;;2.95;2.03;;;;;20.50;102668.00;;;;5051417;28;20802;-77
2021/08/24 03:27:20;;;;;;;3.22;1.90;;;;;20.50;102669.00;;;;5051668;28;20191;-76
2021/08/24 03:29:58;;;;;;;3.10;2.20;;;;;20.40;102668.00;;;;5052583;28;20239;-77
2021/08/24 03:32:26;;;;;;;4.82;2.25;;;;;20.50;102669.00;;;;5051681;28;20199;-77
2021/08/24 03:34:53;;;;;;;3.97;2.47;;;;;20.50;102674.00;;;;5051804;28;20294;-77
2021/08/24 03:37:20;;;;;;;3.40;2.30;;;;;20.50;102668.00;;;;5051124;28;20231;-77
2021/08/24 03:39:48;;;;;;;4.05;2.50;;;;;20.50;102675.00;;;;5051323;28;20207;-77
2021/08/24 03:42:15;;;;;;;4.18;1.85;;;;;20.50;102677.00;;;;5051510;28;20200;-77
2021/08/24 03:44:46;;;;;;;3.45;2.15;;;;;20.50;102681.00;;;;5051767;28;20561;-77
2021/08/24 03:47:13;;;;;;;4.63;2.28;;;;;20.50;102676.00;;;;5051673;28;20219;-77
2021/08/24 03:49:41;;;;;;;4.38;1.98;;;;;20.50;102680.00;;;;5051190;28;20231;-77
2021/08/24 03:52:09;;;;;;;3.75;2.50;;;;;20.40;102679.00;;;;5051501;28;20196;-77
2021/08/24 03:54:36;;;;;;;3.22;2.30;;;;;20.40;102689.00;;;;5051257;28;20211;-76
2021/08/24 03:57:04;;;;;;;3.30;2.47;;;;;20.40;102692.00;;;;5051068;28;20230;-77
2021/08/24 03:59:31;;;;;;;3.53;2.25;;;;;20.40;102686.00;;;;5051327;28;20207;-76
2021/08/24 04:02:01;;;;;;;3.45;2.28;;;;;20.40;102683.00;;;;5051201;28;20210;-77
2021/08/24 04:04:28;;;;;;;2.70;1.98;;;;;20.40;102684.00;;;;5070637;28;20882;-77
2021/08/24 04:06:56;;;;;;;3.67;2.15;;;;;20.40;102683.00;;;;5071044;28;20205;-77
2021/08/24 04:09:23;;;;;;;3.42;2.25;;;;;20.40;102685.00;;;;5070094;28;20217;-76
2021/08/24 04:11:50;;;;;;;4.05;2.47;;;;;20.40;102688.00;;;;5070967;28;20691;-77
2021/08/24 04:14:17;;;;;;;4.82;2.40;;;;;20.40;102695.00;;;;5070291;28;20206;-77
2021/08/24 04:16:44;;;;;;;3.17;2.22;;;;;20.40;102698.00;;;;5070850;28;20202;-77
2021/08/24 04:19:13;;;;;;;3.38;2.28;;;;;20.40;102695.00;;;;5068340;28;20834;-76
2021/08/24 04:21:41;;;;;;;5.97;2.10;;;;;20.40;102692.00;;;;5051081;28;20204;-77
2021/08/24 04:24:09;;;;;;;3.55;2.08;;;;;20.50;102699.00;;;;5050278;28;20214;-77
2021/08/24 04:26:37;;;;;;;6.32;2.35;;;;;20.50;102701.00;;;;5050894;28;20589;-77
2021/08/24 04:29:04;;;;;;;3.05;2.30;;;;;20.40;102704.00;;;;5050424;28;20204;-76
2021/08/24 04:31:34;;;;;;;4.50;2.35;;;;;20.40;102703.00;;;;5050129;28;20219;-76
2021/08/24 04:34:01;;;;;;;3.05;2.40;;;;;20.40;102707.00;;;;5050906;28;20207;-77
2021/08/24 04:36:30;;;;;;;5.35;2.08;;;;;20.40;102712.00;;;;5050848;28;20532;-76
2021/08/24 04:38:57;;;;;;;5.13;2.60;;;;;20.40;102709.00;;;;5050292;28;20516;-77
2021/08/24 04:41:24;;;;;;;3.50;2.30;;;;;20.40;102715.00;;;;5049932;28;20203;-77
2021/08/24 04:43:52;;;;;;;3.03;2.03;;;;;20.40;102713.00;;;;5050930;28;20298;-77
2021/08/24 04:46:19;;;;;;;4.68;2.17;;;;;20.40;102716.00;;;;5050261;28;20215;-77
2021/08/24 04:48:46;;;;;;;5.68;2.08;;;;;20.40;102714.00;;;;5050535;28;20207;-76
2021/08/24 04:51:13;;;;;;;5.03;2.58;;;;;20.40;102716.00;;;;5049778;28;20250;-77
2021/08/24 04:53:42;;;;;;;2.65;1.98;;;;;20.30;102720.00;;;;5050577;28;20207;-77
2021/08/24 04:56:09;;;;;;;2.67;1.98;;;;;20.40;102721.00;;;;5049493;28;20234;-76
2021/08/24 04:58:36;;;;;;;3.60;2.15;;;;;20.40;102717.00;;;;5049938;28;20207;-77
2021/08/24 05:01:03;;;;;;;3.13;2.13;;;;;20.40;102717.00;;;;5050061;28;20195;-77
2021/08/24 05:03:31;;;;;;;6.30;2.70;;;;;20.40;102719.00;;;;5049453;28;20204;-77
2021/08/24 05:05:58;;;;;;;2.97;2.28;;;;;20.40;102721.00;;;;5049465;28;20207;-77
2021/08/24 05:08:27;;;;;;;3.55;2.40;;;;;20.40;102721.00;;;;5049705;28;20210;-77
2021/08/24 05:10:55;;;;;;;3.40;1.98;;;;;20.40;102710.00;;;;5057021;28;20252;-76
2021/08/24 05:13:23;;;;;;;4.32;2.50;;;;;20.40;102721.00;;;;5068814;28;20202;-77
2021/08/24 05:15:50;;;;;;;3.10;2.50;;;;;20.50;102723.00;;;;5068978;28;20206;-78
2021/08/24 05:18:17;;;;;;;3.17;2.65;;;;;20.50;102722.00;;;;5069015;28;20202;-77
2021/08/24 05:20:44;;;;;;;2.92;2.33;;;;;20.50;102726.00;;;;5069125;28;20202;-77
2021/08/24 05:23:11;;;;;;;3.25;2.40;;;;;20.50;102732.00;;;;5067941;28;20205;-77
2021/08/24 05:25:39;;;;;;;5.82;2.90;;;;;20.50;102718.00;;;;5068814;28;20214;-77
2021/08/24 05:28:08;;;;;;;6.05;2.75;;;;;20.50;102723.00;;;;5067905;28;20237;-77
2021/08/24 05:30:35;;;;;;;3.38;1.90;;;;;20.50;102721.00;;;;5068656;28;20222;-77
2021/08/24 05:33:02;;;;;;;4.00;2.60;;;;;20.50;102722.00;;;;5068491;28;20198;-77
2021/08/24 05:35:29;;;;;;;4.05;2.20;;;;;20.60;102720.00;;;;5068267;28;20194;-77
2021/08/24 05:37:57;;;;;;;3.13;2.75;;;;;20.60;102728.00;;;;5068526;28;20233;-77
2021/08/24 05:40:24;;;;;;;4.13;2.50;;;;;20.60;102736.00;;;;5068238;28;20207;-77
2021/08/24 05:42:52;;;;;;;6.45;3.05;;;;;20.60;102725.00;;;;5068671;28;20557;-77
2021/08/24 05:45:20;;;;;;;6.38;2.72;;;;;20.60;102722.00;;;;5067595;28;20225;-77
2021/08/24 05:47:47;;;;;;;2.50;1.98;;;;;20.70;102722.00;;;;5068867;28;20202;-77
2021/08/24 05:50:15;;;;;;;3.83;2.75;;;;;20.70;102731.00;;;;5067476;28;20238;-77
2021/08/24 05:52:42;;;;;;;5.55;2.40;;;;;20.70;102727.00;;;;5068279;28;20286;-77
2021/08/24 05:55:10;;;;;;;3.95;2.90;;;;;20.80;102723.00;;;;5049389;28;20207;-77
2021/08/24 05:57:37;;;;;;;3.05;2.45;;;;;20.80;102732.00;;;;5048628;28;20200;-76
2021/08/24 06:00:06;;;;;;;2.88;2.22;;;;;20.90;102732.00;;;;5048268;28;20210;-77
2021/08/24 06:02:36;;;;;;;3.28;2.53;;;;;20.90;102728.00;;;;5048723;28;20675;-78
2021/08/24 06:05:04;;;;;;;4.10;2.70;;;;;21.00;102733.00;;;;5048308;28;20206;-77
2021/08/24 06:07:32;;;;;;;4.72;2.63;;;;;21.00;102734.00;;;;5047841;28;20253;-77
2021/08/24 06:09:59;;;;;;;4.35;2.53;;;;;21.10;102734.00;;;;5057055;28;20207;-77
2021/08/24 06:12:26;;;;;;;4.78;3.28;;;;;21.10;102744.00;;;;5051130;28;20219;-77
2021/08/24 06:14:53;;;;;;;3.15;2.45;;;;;21.10;102745.00;;;;5047857;28;20199;-77
2021/08/24 06:17:21;;;;;;;3.55;2.20;;;;;21.20;102743.00;;;;5047440;28;20688;-77
2021/08/24 06:19:49;;;;;;;4.82;2.65;;;;;21.20;102742.00;;;;5063977;28;20211;-78
2021/08/24 06:22:17;;;;;;;3.88;2.15;;;;;21.30;102745.00;;;;5067898;28;20198;-77
2021/08/24 06:24:44;;;;;;;3.63;2.88;;;;;21.30;102742.00;;;;5068303;28;20205;-78
2021/08/24 06:27:11;;;;;;;6.53;3.17;;;;;21.30;102744.00;;;;5067304;28;20676;-77
2021/08/24 06:29:38;;;;;;;4.85;3.03;;;;;21.40;102740.00;;;;5068709;28;20202;-77
2021/08/24 06:32:07;;;;;;;4.57;2.65;;;;;21.40;102743.00;;;;5068419;28;20222;-77
2021/08/24 06:34:36;;;;;;;3.60;2.47;;;;;21.50;102750.00;;;;5068810;28;20203;-77
2021/08/24 06:37:05;;;;;;;3.33;2.55;;;;;21.50;102753.00;;;;5067639;28;20226;-77
2021/08/24 06:39:32;;;;;;;4.07;2.53;;;;;21.60;102752.00;;;;5068292;28;20199;-77
2021/08/24 06:41:59;;;;;;;4.13;2.50;;;;;21.60;102754.00;;;;5068348;28;20207;-77
2021/08/24 06:44:26;;;;;;;7.22;2.58;;;;;21.70;102754.00;;;;5068641;28;20211;-77
2021/08/24 06:46:54;;;;;;;4.00;3.17;;;;;21.70;102751.00;;;;5068380;28;20665;-78
2021/08/24 06:49:21;;;;;;;2.67;2.47;;;;;21.80;102753.00;;;;5068414;28;20202;-77
2021/08/24 06:51:48;;;;;;;6.95;2.42;;;;;21.80;102753.00;;;;5067849;28;20230;-77
2021/08/24 06:54:17;;;;;;;5.28;2.33;;;;;21.80;102754.00;;;;5048790;28;20200;-77
2021/08/24 06:56:44;;;;;;;3.17;2.42;;;;;21.90;102753.00;;;;5048512;28;20204;-78
2021/08/24 06:59:13;;;;;;;4.03;2.75;;;;;22.00;102756.00;;;;5047932;28;20199;-79
2021/08/24 07:01:40;;;;;;;3.30;2.22;;;;;22.00;102758.00;;;;5048525;28;20642;-79
2021/08/24 07:04:07;;;;;;;3.22;2.40;;;;;22.10;102763.00;;;;5048342;28;20210;-79
2021/08/24 07:06:35;;;;;;;3.78;2.53;;;;;22.10;102767.00;;;;5048423;28;20206;-79
2021/08/24 07:09:02;;;;;;;3.42;2.30;;;;;22.20;102764.00;;;;5049258;28;20200;-78
2021/08/24 07:11:31;;;;;;;5.00;2.53;;;;;22.20;102764.00;;;;5068195;28;20226;-78
2021/08/24 07:14:00;;;;;;;4.72;2.30;;;;;22.30;102764.00;;;;5068178;28;20233;-76
2021/08/24 07:16:28;;;;;;;3.78;2.40;;;;;22.30;102770.00;;;;5068616;28;20202;-78
2021/08/24 07:18:57;;;;;;;4.88;2.45;;;;;22.40;102761.00;;;;5068145;28;20199;-78
2021/08/24 07:21:25;;;;;;;3.33;2.15;;;;;22.50;102768.00;;;;5067917;28;20699;-78
2021/08/24 07:23:52;;;;;;;3.55;1.98;;;;;22.50;102769.00;;;;5068120;28;20207;-77
2021/08/24 07:26:21;;;;;;;3.28;2.40;;;;;22.60;102769.00;;;;5066773;28;20207;-77
2021/08/24 07:28:50;;;;;;;2.72;2.00;;;;;22.60;102772.00;;;;5070964;28;20199;-77
2021/08/24 07:31:17;;;;;;;3.03;2.08;;;;;22.70;102772.00;;;;5071303;28;20876;-78
2021/08/24 07:33:45;;;;;;;3.88;2.38;;;;;22.80;102779.00;;;;5071845;28;20225;-78
2021/08/24 07:36:12;;;;;;;4.18;2.53;;;;;22.80;102777.00;;;;5070887;28;20203;-78
2021/08/24 07:38:40;;;;;;;4.45;2.50;;;;;22.90;102776.00;;;;5071502;28;20231;-78
2021/08/24 07:41:07;;;;;;;4.03;2.58;;;;;22.90;102782.00;;;;5071521;28;20214;-78
2021/08/24 07:43:36;;;;;;;3.75;2.40;;;;;23.00;102777.00;;;;5070825;28;20210;-78
2021/08/24 07:46:05;;;;;;;3.03;2.05;;;;;23.00;102772.00;;;;5071025;28;20225;-78
2021/08/24 07:48:34;;;;;;;3.17;2.35;;;;;23.10;102773.00;;;;5071341;28;20668;-78
2021/08/24 07:51:01;;;;;;;3.17;2.10;;;;;23.10;102770.00;;;;5071005;28;20227;-78
2021/08/24 07:53:28;;;;;;;5.45;2.85;;;;;23.20;102773.00;;;;5058012;28;20199;-78
2021/08/24 07:55:56;;;;;;;3.13;2.33;;;;;23.20;102778.00;;;;5051258;28;20196;-77
2021/08/24 07:58:23;;;;;;;4.68;2.58;;;;;23.30;102782.00;;;;5051162;28;20211;-78
2021/08/24 08:00:50;;;;;;;3.58;2.50;;;;;23.30;102773.00;;;;5051801;28;20616;-78
2021/08/24 08:03:20;;;;;;;4.38;2.42;;;;;23.30;102777.00;;;;5050763;28;20211;-77
2021/08/24 08:05:47;;;;;;;3.85;2.40;;;;;23.40;102783.00;;;;5051715;28;20212;-77
2021/08/24 08:08:15;;;;;;;3.00;2.47;;;;;23.50;102787.00;;;;5050167;28;20673;-78
2021/08/24 08:10:42;;;;;;;3.15;2.35;;;;;23.60;102780.00;;;;5067728;28;20203;-78
2021/08/24 08:13:10;;;;;;;5.57;2.67;;;;;23.60;102778.00;;;;5070919;28;20199;-78
2021/08/24 08:15:37;;;;;;;3.58;2.47;;;;;23.80;102784.00;;;;5071026;28;20214;-78
2021/08/24 08:18:06;;;;;;;3.25;2.17;;;;;23.80;102789.00;;;;5060850;28;20211;-78
2021/08/24 08:20:36;;;;;;;3.58;2.28;;;;;23.90;102791.00;;;;5050400;28;20200;-77
2021/08/24 08:23:05;;;;;;;4.82;2.47;;;;;24.00;102779.00;;;;5050578;28;20673;-78
2021/08/24 08:25:33;;;;;;;4.35;2.42;;;;;24.10;102782.00;;;;5050337;28;20206;-78
2021/08/24 08:28:00;;;;;;;3.40;2.38;;;;;24.20;102779.00;;;;5050894;28;20211;-77
2021/08/24 08:30:29;;;;;;;2.67;2.00;;;;;24.20;102778.00;;;;5050822;28;20207;-78
2021/08/24 08:32:57;;;;;;;3.15;2.00;;;;;24.30;102777.00;;;;5049810;28;20227;-77
2021/08/24 08:35:24;;;;;;;2.67;2.35;;;;;24.40;102776.00;;;;5051135;28;20254;-78
2021/08/24 08:37:53;;;;;;;3.80;2.20;;;;;24.50;102781.00;;;;5050249;28;20232;-78
2021/08/24 08:40:25;;;;;;;2.33;2.13;;;;;24.60;102776.00;;;;5049685;28;20256;-78
2021/08/24 08:43:03;;;;;;;5.40;2.13;;;;;24.60;102782.00;;;;5050876;28;20293;-77
2021/08/24 08:45:41;;;;;;;2.70;2.15;;;;;24.70;102778.00;;;;5050385;28;20223;-77
2021/08/24 08:48:23;;;;;;;3.83;2.03;;;;;24.80;102780.00;;;;5049771;28;20203;-77
2021/08/24 08:50:55;;;;;;;3.20;1.98;;;;;24.90;102786.00;;;;5050635;28;20203;-78
2021/08/24 08:53:33;;;;;;;3.28;2.33;;;;;25.00;102793.00;;;;5050110;28;20226;-77
2021/08/24 08:56:06;;;;;;;3.38;2.22;;;;;25.10;102793.00;;;;5050377;28;20202;-78
2021/08/24 08:58:43;;;;;;;2.88;1.90;;;;;25.20;102802.00;;;;5030029;28;20215;-79
2021/08/24 09:01:17;;;;;;;3.58;1.92;;;;;25.30;102795.00;;;;5029396;28;20223;-78
2021/08/24 09:03:52;;;;;;;1.70;1.58;;;;;25.40;102791.00;;;;5029924;28;20196;-78
2021/08/24 09:06:23;;;;;;;2.88;1.80;;;;;25.50;102787.00;;;;5029673;28;20199;-79
2021/08/24 09:08:53;;;;;;;4.40;2.10;;;;;25.60;102797.00;;;;5031224;28;20208;-78
2021/08/24 09:11:26;;;;;;;2.97;1.55;;;;;25.70;102795.00;;;;5039572;28;20686;-79
2021/08/24 09:13:59;;;;;;;2.20;1.95;;;;;25.80;102793.00;;;;5029441;28;20602;-79
2021/08/24 09:16:31;;;;;;;2.67;2.10;;;;;25.90;102788.00;;;;5028801;28;20274;-77
2021/08/24 09:19:02;;;;;;;2.20;2.00;;;;;26.00;102791.00;;;;5028581;28;20204;-77
2021/08/24 09:21:33;;;;;;;5.68;1.60;;;;;26.10;102788.00;;;;5028979;28;20215;-78
2021/08/24 09:24:08;;;;;;;5.45;2.38;;;;;26.20;102785.00;;;;5028950;28;20211;-78
2021/08/24 09:27:03;;;;;;;2.88;2.13;;;;;26.30;102792.00;;;;5042253;28;20253;-78
2021/08/24 09:29:34;;;;;;;2.28;1.73;;;;;26.30;102791.00;;;;5033595;28;20235;-78
2021/08/24 09:32:04;;;;;;;2.28;1.83;;;;;26.40;102795.00;;;;5048916;28;20227;-78
2021/08/24 09:34:37;;;;;;;2.03;1.60;;;;;26.50;102791.00;;;;5048345;28;20682;-78
2021/08/24 09:37:05;;;;;;;3.33;2.00;;;;;26.60;102782.00;;;;5047907;28;20223;-78
2021/08/24 09:39:56;;;;;;;3.08;1.63;;;;;26.60;102792.00;;;;5048569;28;20611;-78
2021/08/24 09:42:35;;;;;;;3.30;1.77;;;;;26.70;102797.00;;;;5047763;28;20265;-78
2021/08/24 09:45:07;;;;;;;2.63;1.90;;;;;26.90;102793.00;;;;5047811;28;20222;-78
2021/08/24 09:47:34;;;;;;;2.67;1.70;;;;;27.00;102794.00;;;;5049080;28;20219;-78
2021/08/24 09:50:15;;;;;;;2.65;1.70;;;;;27.00;102795.00;;;;5048627;28;20204;-78
2021/08/24 09:52:48;;;;;;;2.28;1.67;;;;;27.10;102796.00;;;;5033393;28;20239;-78
2021/08/24 09:55:21;;;;;;;3.60;1.80;;;;;27.20;102795.00;;;;5028154;28;20254;-77
2021/08/24 09:57:53;;;;;;;1.63;1.52;;;;;27.30;102794.00;;;;5028597;28;20236;-77
2021/08/24 10:00:23;;;;;;;2.15;1.88;;;;;27.30;102791.00;;;;5028511;28;20694;-78
2021/08/24 10:02:53;;;;;;;2.10;1.80;;;;;27.40;102787.00;;;;5028756;28;20208;-78
2021/08/24 10:05:36;;;;;;;2.65;1.70;;;;;27.40;102790.00;;;;5027818;28;20671;-78
2021/08/24 10:08:28;;;;;;;5.80;1.85;;;;;27.40;102779.00;;;;5027569;28;20204;-78
2021/08/24 10:11:14;;;;;;;3.78;1.55;;;;;27.60;102783.00;;;;5045654;28;20231;-79
2021/08/24 10:13:43;;;;;;;1.70;1.20;;;;;27.70;102787.00;;;;5048639;28;20203;-78
2021/08/24 10:16:19;;;;;;;3.10;1.92;;;;;27.70;102783.00;;;;5045861;28;20214;-78
2021/08/24 10:18:51;;;;;;;3.83;1.52;;;;;27.70;102779.00;;;;5028221;28;20654;-78
2021/08/24 10:21:31;;;;;;;1.73;1.63;;;;;27.70;102790.00;;;;5027856;28;20199;-78
2021/08/24 10:24:01;;;;;;;2.75;2.05;;;;;27.70;102786.00;;;;5027758;28;20662;-79
2021/08/24 10:26:34;;;;;;;2.33;1.58;;;;;27.70;102779.00;;;;5028081;28;21044;-78
2021/08/24 10:29:04;;;;;;;5.57;2.30;;;;;27.70;102773.00;;;;5028315;28;20204;-79
2021/08/24 10:31:38;;;;;;;2.60;1.10;;;;;27.70;102780.00;;;;5027727;28;20648;-78
2021/08/24 10:34:10;;;;;;;1.20;1.10;;;;;27.80;102781.00;;;;5028823;28;20206;-78
2021/08/24 10:36:40;;;;;;;3.35;1.38;;;;;27.80;102777.00;;;;5027392;28;20277;-78
2021/08/24 10:39:25;;;;;;;3.58;1.42;;;;;27.90;102777.00;;;;5028201;28;20200;-79
2021/08/24 10:42:05;;;;;;;2.58;1.33;;;;;27.90;102768.00;;;;5028693;28;20212;-78
2021/08/24 10:44:42;;;;;;;3.58;1.27;;;;;28.00;102774.00;;;;5028528;28;20690;-78
2021/08/24 10:47:23;;;;;;;3.58;1.63;;;;;28.00;102769.00;;;;5028169;28;20208;-78
2021/08/24 10:49:51;;;;;;;2.45;1.63;;;;;28.10;102764.00;;;;5028032;28;20211;-78
2021/08/24 10:52:44;;;;;;;1.85;1.50;;;;;28.00;102763.00;;;;5036328;28;20698;-78
2021/08/24 10:55:14;;;;;;;2.20;1.40;;;;;28.20;102762.00;;;;5028541;28;20192;-78
2021/08/24 10:58:02;;;;;;;2.50;1.58;;;;;28.10;102765.00;;;;5028501;28;20291;-79
2021/08/24 11:00:55;;;;;;;2.20;1.45;;;;;28.20;102763.00;;;;5028471;28;20223;-78
2021/08/24 11:04:02;;;;;;;2.35;1.75;;;;;28.20;102764.00;;;;5030313;28;20208;-78
2021/08/24 11:06:37;;;;;;;2.25;1.13;;;;;28.30;102760.00;;;;5032040;28;20655;-78
2021/08/24 11:09:19;;;;;;;2.30;1.48;;;;;28.30;102761.00;;;;5034028;28;20200;-78
2021/08/24 11:11:57;;;;;;;2.15;1.50;;;;;28.40;102767.00;;;;5052485;28;20634;-77
2021/08/24 11:14:33;;;;;;;5.75;2.20;;;;;28.50;102771.00;;;;5052060;28;20204;-78
2021/08/24 11:17:09;;;;;;;2.50;1.50;;;;;28.50;102754.00;;;;5052345;28;20239;-78
2021/08/24 11:19:51;;;;;;;2.72;1.60;;;;;28.60;102748.00;;;;5051795;28;20202;-78
2021/08/24 11:22:26;;;;;;;2.08;1.77;;;;;28.60;102746.00;;;;5051769;28;20191;-77
2021/08/24 11:25:00;;;;;;;2.22;1.40;;;;;28.70;102738.00;;;;5043403;28;20563;-78
2021/08/24 11:27:35;;;;;;;2.63;1.55;;;;;28.60;102738.00;;;;5032320;28;20211;-77
2021/08/24 11:30:19;;;;;;;2.20;1.30;;;;;28.60;102746.00;;;;5032073;28;20203;-78
2021/08/24 11:32:50;;;;;;;2.67;1.35;;;;;28.60;102734.00;;;;5032122;28;20259;-78
2021/08/24 11:35:21;;;;;;;3.75;1.98;;;;;28.60;102722.00;;;;5030908;28;20211;-78
2021/08/24 11:37:52;;;;;;;1.70;1.02;;;;;28.60;102721.00;;;;5031782;28;20224;-78
2021/08/24 11:40:24;;;;;;;2.13;1.10;;;;;28.50;102726.00;;;;5031626;28;20205;-78
2021/08/24 11:42:54;;;;;;;3.05;1.27;;;;;28.50;102729.00;;;;5032773;28;20210;-77
2021/08/24 11:45:29;;;;;;;1.95;1.30;;;;;28.40;102729.00;;;;5031518;28;20220;-78
2021/08/24 11:48:03;;;;;;;3.03;1.40;;;;;28.30;102728.00;;;;5031058;28;20215;-78
2021/08/24 11:50:40;;;;;;;1.60;1.15;;;;;28.30;102725.00;;;;5030915;28;20220;-78
2021/08/24 11:53:15;;;;;;;2.10;1.20;;;;;28.20;102717.00;;;;5031094;28;20503;-78
2021/08/24 11:55:52;;;;;;;1.40;0.90;;;;;28.20;102718.00;;;;5031528;28;20210;-79
2021/08/24 11:58:29;;;;;;;1.77;1.10;;;;;28.20;102716.00;;;;5034257;28;20685;-78
2021/08/24 12:01:02;;;;;;;2.83;1.50;;;;;28.20;102708.00;;;;5050789;28;20204;-78
2021/08/24 12:03:29;;;;;;;1.70;1.42;;;;;28.20;102711.00;;;;5050654;28;20637;-77
2021/08/24 12:06:07;;;;;;;3.20;1.52;;;;;28.20;102700.00;;;;5051409;28;20207;-78
2021/08/24 12:08:44;;;;;;;1.50;1.10;;;;;28.20;102709.00;;;;5050669;28;20601;-77
2021/08/24 12:11:16;;;;;;;1.73;1.35;;;;;28.30;102704.00;;;;5037676;28;20859;-78
2021/08/24 12:13:47;;;;;;;2.35;1.35;;;;;28.30;102704.00;;;;5049317;28;20610;-77
2021/08/24 12:16:37;;;;;;;1.50;1.00;;;;;28.10;102707.00;;;;5039036;28;20212;-77
2021/08/24 12:19:19;;;;;;;1.42;1.13;;;;;28.10;102701.00;;;;5026407;28;20223;-78
2021/08/24 12:21:51;;;;;;;3.13;1.38;;;;;28.10;102703.00;;;;5031096;28;20204;-78
2021/08/24 12:24:51;;;;;;;3.83;1.40;;;;;28.00;102707.00;;;;5030604;28;20658;-78
2021/08/24 12:28:01;;;;;;;2.03;1.40;;;;;28.00;102707.00;;;;5030206;28;20301;-78
2021/08/24 12:30:56;;;;;;;2.35;1.55;;;;;28.00;102701.00;;;;5031011;28;20213;-78